Terminal Aerodrome Forecast
Issued by NWS

Home | Current Version | Previous Version | Text Only | Print | Product List | Glossary Off
Versions: 1 2 3 4 5 6 7 8 9 10 11 12 13 14 15 16 17 18

597
FTUS43 KIWX 030545
TAFSBN
TAF
KSBN 030545Z 0306/0406 20004KT 4SM BR OVC008
     FM030730 20004KT 1/2SM FG OVC003
     FM031000 22008KT 4SM BR SCT005 BKN015
     FM031500 23020G29KT P6SM -SHSN OVC025
     FM040000 26015KT P6SM BKN015=

USA.gov is the U.S. government's official web portal to all federal, state and local government web resources and services.